sensor_id;sensor_type;location;lat;lon;timestamp;temperature;humidity
75008;DHT22;63554;48.940;12.050;2022-09-20T00:00:43;8.10;91.60
75008;DHT22;63554;48.940;12.050;2022-09-20T00:03:47;8.10;91.90
75008;DHT22;63554;48.940;12.050;2022-09-20T00:06:49;8.10;91.90
75008;DHT22;63554;48.940;12.050;2022-09-20T00:09:50;8.00;92.00
75008;DHT22;63554;48.940;12.050;2022-09-20T00:12:53;8.00;91.90
75008;DHT22;63554;48.940;12.050;2022-09-20T00:15:55;8.10;91.80
75008;DHT22;63554;48.940;12.050;2022-09-20T00:18:59;8.10;91.20
75008;DHT22;63554;48.940;12.050;2022-09-20T00:22:03;8.10;91.10
75008;DHT22;63554;48.940;12.050;2022-09-20T00:25:06;8.10;90.60
75008;DHT22;63554;48.940;12.050;2022-09-20T00:28:10;8.10;90.70
75008;DHT22;63554;48.940;12.050;2022-09-20T00:31:12;8.10;90.60
75008;DHT22;63554;48.940;12.050;2022-09-20T00:34:14;8.10;90.40
75008;DHT22;63554;48.940;12.050;2022-09-20T00:37:33;8.10;90.50
75008;DHT22;63554;48.940;12.050;2022-09-20T00:40:35;8.10;90.30
75008;DHT22;63554;48.940;12.050;2022-09-20T00:43:40;8.10;90.10
75008;DHT22;63554;48.940;12.050;2022-09-20T00:46:43;8.20;90.20
75008;DHT22;63554;48.940;12.050;2022-09-20T00:49:46;8.20;89.60
75008;DHT22;63554;48.940;12.050;2022-09-20T00:52:51;8.10;89.90
75008;DHT22;63554;48.940;12.050;2022-09-20T00:55:57;8.10;90.30
75008;DHT22;63554;48.940;12.050;2022-09-20T00:59:07;8.20;90.70
75008;DHT22;63554;48.940;12.050;2022-09-20T01:02:14;8.10;90.90
75008;DHT22;63554;48.940;12.050;2022-09-20T01:05:17;8.10;91.00
75008;DHT22;63554;48.940;12.050;2022-09-20T01:08:20;8.10;90.80
75008;DHT22;63554;48.940;12.050;2022-09-20T01:11:24;8.10;90.90
75008;DHT22;63554;48.940;12.050;2022-09-20T01:14:28;8.10;90.40
75008;DHT22;63554;48.940;12.050;2022-09-20T01:17:33;8.20;89.40
75008;DHT22;63554;48.940;12.050;2022-09-20T01:20:37;8.20;88.80
75008;DHT22;63554;48.940;12.050;2022-09-20T01:23:47;8.20;88.30
75008;DHT22;63554;48.940;12.050;2022-09-20T01:27:00;8.20;88.30
75008;DHT22;63554;48.940;12.050;2022-09-20T01:30:08;8.30;88.00
75008;DHT22;63554;48.940;12.050;2022-09-20T01:33:15;8.30;88.10
75008;DHT22;63554;48.940;12.050;2022-09-20T01:36:23;8.30;88.10
75008;DHT22;63554;48.940;12.050;2022-09-20T01:39:33;8.30;88.10
75008;DHT22;63554;48.940;12.050;2022-09-20T01:42:42;8.30;88.00
75008;DHT22;63554;48.940;12.050;2022-09-20T01:45:48;8.20;88.10
75008;DHT22;63554;48.940;12.050;2022-09-20T01:48:51;8.20;88.20
75008;DHT22;63554;48.940;12.050;2022-09-20T01:52:33;8.20;88.20
75008;DHT22;63554;48.940;12.050;2022-09-20T01:59:37;8.20;88.30
75008;DHT22;63554;48.940;12.050;2022-09-20T02:03:25;8.20;88.30
75008;DHT22;63554;48.940;12.050;2022-09-20T02:06:53;8.20;88.20
75008;DHT22;63554;48.940;12.050;2022-09-20T02:10:26;8.20;88.10
75008;DHT22;63554;48.940;12.050;2022-09-20T02:13:39;8.20;88.20
75008;DHT22;63554;48.940;12.050;2022-09-20T02:16:52;8.20;88.20
75008;DHT22;63554;48.940;12.050;2022-09-20T02:20:05;8.20;88.10
75008;DHT22;63554;48.940;12.050;2022-09-20T02:23:15;8.20;88.20
75008;DHT22;63554;48.940;12.050;2022-09-20T02:26:31;8.20;88.20
75008;DHT22;63554;48.940;12.050;2022-09-20T02:29:41;8.20;88.30
75008;DHT22;63554;48.940;12.050;2022-09-20T02:33:02;8.20;88.40
75008;DHT22;63554;48.940;12.050;2022-09-20T02:36:23;8.10;88.90
75008;DHT22;63554;48.940;12.050;2022-09-20T02:39:33;8.10;88.80
75008;DHT22;63554;48.940;12.050;2022-09-20T02:42:39;8.10;88.60
75008;DHT22;63554;48.940;12.050;2022-09-20T02:45:46;8.10;89.00
75008;DHT22;63554;48.940;12.050;2022-09-20T02:48:56;8.10;89.20
75008;DHT22;63554;48.940;12.050;2022-09-20T02:52:09;8.00;89.40
75008;DHT22;63554;48.940;12.050;2022-09-20T02:55:16;8.00;89.30
75008;DHT22;63554;48.940;12.050;2022-09-20T02:58:29;8.00;89.00
75008;DHT22;63554;48.940;12.050;2022-09-20T03:01:43;8.00;89.20
75008;DHT22;63554;48.940;12.050;2022-09-20T03:04:58;8.00;89.10
75008;DHT22;63554;48.940;12.050;2022-09-20T03:08:19;8.00;89.10
75008;DHT22;63554;48.940;12.050;2022-09-20T03:11:29;8.00;89.00
75008;DHT22;63554;48.940;12.050;2022-09-20T03:14:36;8.00;89.00
75008;DHT22;63554;48.940;12.050;2022-09-20T03:17:46;8.00;89.30
75008;DHT22;63554;48.940;12.050;2022-09-20T03:20:56;8.00;89.40
75008;DHT22;63554;48.940;12.050;2022-09-20T03:24:07;8.00;89.70
75008;DHT22;63554;48.940;12.050;2022-09-20T03:27:15;8.00;90.00
75008;DHT22;63554;48.940;12.050;2022-09-20T03:30:35;7.90;90.30
75008;DHT22;63554;48.940;12.050;2022-09-20T03:33:48;7.80;90.60
75008;DHT22;63554;48.940;12.050;2022-09-20T03:37:04;7.90;90.80
75008;DHT22;63554;48.940;12.050;2022-09-20T03:40:27;7.80;90.90
75008;DHT22;63554;48.940;12.050;2022-09-20T03:43:42;7.80;91.00
75008;DHT22;63554;48.940;12.050;2022-09-20T03:46:46;7.80;91.10
75008;DHT22;63554;48.940;12.050;2022-09-20T03:50:03;7.80;91.30
75008;DHT22;63554;48.940;12.050;2022-09-20T03:53:27;7.80;91.50
75008;DHT22;63554;48.940;12.050;2022-09-20T03:56:43;7.80;91.50
75008;DHT22;63554;48.940;12.050;2022-09-20T04:00:18;7.80;91.60
75008;DHT22;63554;48.940;12.050;2022-09-20T04:03:29;7.80;91.50
75008;DHT22;63554;48.940;12.050;2022-09-20T19:07:21;21.90;65.00
75008;DHT22;63554;48.940;12.050;2022-09-20T19:10:32;21.90;64.40
75008;DHT22;63554;48.940;12.050;2022-09-20T19:13:41;22.00;64.50
75008;DHT22;63554;48.940;12.050;2022-09-20T19:16:47;21.90;50.60
75008;DHT22;63554;48.940;12.050;2022-09-20T19:19:54;16.40;56.60
75008;DHT22;63554;48.940;12.050;2022-09-20T19:23:07;13.30;65.00
75008;DHT22;63554;48.940;12.050;2022-09-20T19:26:18;12.00;69.50
75008;DHT22;63554;48.940;12.050;2022-09-20T19:29:22;11.60;71.40
75008;DHT22;63554;48.940;12.050;2022-09-20T19:32:25;11.10;73.60
75008;DHT22;63554;48.940;12.050;2022-09-20T19:35:31;10.80;74.70
75008;DHT22;63554;48.940;12.050;2022-09-20T19:38:43;10.70;74.90
75008;DHT22;63554;48.940;12.050;2022-09-20T19:41:51;10.40;76.30
75008;DHT22;63554;48.940;12.050;2022-09-20T19:45:04;10.00;77.80
75008;DHT22;63554;48.940;12.050;2022-09-20T19:48:11;9.70;78.70
75008;DHT22;63554;48.940;12.050;2022-09-20T19:51:15;9.70;78.50
75008;DHT22;63554;48.940;12.050;2022-09-20T19:54:19;10.00;77.60
75008;DHT22;63554;48.940;12.050;2022-09-20T19:57:22;10.00;76.70
75008;DHT22;63554;48.940;12.050;2022-09-20T20:00:29;9.90;76.80
75008;DHT22;63554;48.940;12.050;2022-09-20T20:03:32;9.70;77.00
75008;DHT22;63554;48.940;12.050;2022-09-20T20:06:38;9.70;76.80
75008;DHT22;63554;48.940;12.050;2022-09-20T20:09:50;9.70;76.50
75008;DHT22;63554;48.940;12.050;2022-09-20T20:13:04;9.40;77.20
75008;DHT22;63554;48.940;12.050;2022-09-20T20:16:32;9.60;76.30
75008;DHT22;63554;48.940;12.050;2022-09-20T20:19:48;9.60;75.80
75008;DHT22;63554;48.940;12.050;2022-09-20T20:26:30;9.30;76.80
75008;DHT22;63554;48.940;12.050;2022-09-20T20:29:32;9.20;77.40
75008;DHT22;63554;48.940;12.050;2022-09-20T20:32:34;9.20;77.30
75008;DHT22;63554;48.940;12.050;2022-09-20T20:35:36;9.20;77.00
75008;DHT22;63554;48.940;12.050;2022-09-20T20:38:39;9.20;76.80
75008;DHT22;63554;48.940;12.050;2022-09-20T20:41:44;9.20;76.30
75008;DHT22;63554;48.940;12.050;2022-09-20T20:44:51;8.80;77.90
75008;DHT22;63554;48.940;12.050;2022-09-20T20:47:55;8.50;79.80
75008;DHT22;63554;48.940;12.050;2022-09-20T20:51:01;8.50;80.40
75008;DHT22;63554;48.940;12.050;2022-09-20T20:54:04;8.40;80.50
75008;DHT22;63554;48.940;12.050;2022-09-20T20:57:07;8.40;81.60
75008;DHT22;63554;48.940;12.050;2022-09-20T21:00:09;8.50;80.80
75008;DHT22;63554;48.940;12.050;2022-09-20T21:03:11;8.50;81.40
75008;DHT22;63554;48.940;12.050;2022-09-20T21:06:13;8.50;81.70
75008;DHT22;63554;48.940;12.050;2022-09-20T21:09:15;8.40;81.90
75008;DHT22;63554;48.940;12.050;2022-09-20T21:12:19;8.60;81.00
75008;DHT22;63554;48.940;12.050;2022-09-20T21:15:20;8.60;80.80
75008;DHT22;63554;48.940;12.050;2022-09-20T21:18:22;8.60;80.50
75008;DHT22;63554;48.940;12.050;2022-09-20T21:21:26;8.50;80.90
75008;DHT22;63554;48.940;12.050;2022-09-20T21:24:27;8.30;81.50
75008;DHT22;63554;48.940;12.050;2022-09-20T21:27:30;8.30;81.50
75008;DHT22;63554;48.940;12.050;2022-09-20T21:30:35;8.30;81.20
75008;DHT22;63554;48.940;12.050;2022-09-20T21:33:39;8.30;81.20
75008;DHT22;63554;48.940;12.050;2022-09-20T21:36:42;8.10;81.90
75008;DHT22;63554;48.940;12.050;2022-09-20T21:39:44;8.10;82.00
75008;DHT22;63554;48.940;12.050;2022-09-20T21:42:47;8.00;82.60
75008;DHT22;63554;48.940;12.050;2022-09-20T21:45:49;7.80;83.40
75008;DHT22;63554;48.940;12.050;2022-09-20T21:48:51;7.60;84.20
75008;DHT22;63554;48.940;12.050;2022-09-20T21:51:52;7.50;84.60
75008;DHT22;63554;48.940;12.050;2022-09-20T21:54:54;7.60;83.50
75008;DHT22;63554;48.940;12.050;2022-09-20T21:57:57;7.80;83.00
75008;DHT22;63554;48.940;12.050;2022-09-20T22:01:00;7.90;82.00
75008;DHT22;63554;48.940;12.050;2022-09-20T22:04:04;8.00;81.80
75008;DHT22;63554;48.940;12.050;2022-09-20T22:07:07;7.80;82.40
75008;DHT22;63554;48.940;12.050;2022-09-20T22:10:09;7.50;83.50
75008;DHT22;63554;48.940;12.050;2022-09-20T22:13:12;7.50;83.60
75008;DHT22;63554;48.940;12.050;2022-09-20T22:16:15;7.60;82.50
75008;DHT22;63554;48.940;12.050;2022-09-20T22:19:18;7.50;82.10
75008;DHT22;63554;48.940;12.050;2022-09-20T22:22:20;7.60;81.50
75008;DHT22;63554;48.940;12.050;2022-09-20T22:25:22;7.80;80.70
75008;DHT22;63554;48.940;12.050;2022-09-20T22:28:25;7.80;80.50
75008;DHT22;63554;48.940;12.050;2022-09-20T22:31:28;7.60;80.60
75008;DHT22;63554;48.940;12.050;2022-09-20T22:34:30;7.60;80.80
75008;DHT22;63554;48.940;12.050;2022-09-20T22:37:32;7.50;80.90
75008;DHT22;63554;48.940;12.050;2022-09-20T22:40:34;7.50;80.70
75008;DHT22;63554;48.940;12.050;2022-09-20T22:43:37;7.50;80.40
75008;DHT22;63554;48.940;12.050;2022-09-20T22:46:39;7.60;80.40
75008;DHT22;63554;48.940;12.050;2022-09-20T22:49:41;7.50;80.40
75008;DHT22;63554;48.940;12.050;2022-09-20T22:52:43;7.50;80.00
75008;DHT22;63554;48.940;12.050;2022-09-20T22:55:44;7.40;80.70
75008;DHT22;63554;48.940;12.050;2022-09-20T22:58:49;7.50;80.50
75008;DHT22;63554;48.940;12.050;2022-09-20T23:01:51;7.50;80.20
75008;DHT22;63554;48.940;12.050;2022-09-20T23:04:53;7.30;81.30
75008;DHT22;63554;48.940;12.050;2022-09-20T23:07:54;7.20;81.30
75008;DHT22;63554;48.940;12.050;2022-09-20T23:11:00;7.20;81.30
75008;DHT22;63554;48.940;12.050;2022-09-20T23:14:04;7.20;82.10
75008;DHT22;63554;48.940;12.050;2022-09-20T23:17:06;7.10;82.50
75008;DHT22;63554;48.940;12.050;2022-09-20T23:20:08;7.10;82.80
75008;DHT22;63554;48.940;12.050;2022-09-20T23:23:10;7.10;82.90
75008;DHT22;63554;48.940;12.050;2022-09-20T23:26:14;7.00;83.30
75008;DHT22;63554;48.940;12.050;2022-09-20T23:29:18;7.00;83.40
75008;DHT22;63554;48.940;12.050;2022-09-20T23:32:19;6.80;84.30
75008;DHT22;63554;48.940;12.050;2022-09-20T23:35:21;6.60;84.80
75008;DHT22;63554;48.940;12.050;2022-09-20T23:38:23;6.60;84.80
75008;DHT22;63554;48.940;12.050;2022-09-20T23:41:26;6.60;85.00
75008;DHT22;63554;48.940;12.050;2022-09-20T23:44:29;6.50;85.20
75008;DHT22;63554;48.940;12.050;2022-09-20T23:47:31;6.60;85.00
75008;DHT22;63554;48.940;12.050;2022-09-20T23:50:33;6.70;84.60
75008;DHT22;63554;48.940;12.050;2022-09-20T23:53:35;6.80;84.10
75008;DHT22;63554;48.940;12.050;2022-09-20T23:56:37;6.50;85.40
75008;DHT22;63554;48.940;12.050;2022-09-20T23:59:41;6.50;85.40
